sensor_id;sensor_type;location;lat;lon;timestamp;P1;durP1;ratioP1;P2;durP2;ratioP2
53890;SDS011;41337;51.400;-2.342;2022-10-23T00:02:20;20.30;;;5.70;;
53890;SDS011;41337;51.400;-2.342;2022-10-23T00:07:20;20.50;;;7.25;;
53890;SDS011;41337;51.400;-2.342;2022-10-23T00:12:21;31.38;;;7.65;;
53890;SDS011;41337;51.400;-2.342;2022-10-23T00:17:22;29.10;;;7.85;;
53890;SDS011;41337;51.400;-2.342;2022-10-23T00:22:23;33.03;;;7.43;;
53890;SDS011;41337;51.400;-2.342;2022-10-23T00:27:24;27.85;;;7.63;;
53890;SDS011;41337;51.400;-2.342;2022-10-23T00:32:25;27.80;;;7.57;;
53890;SDS011;41337;51.400;-2.342;2022-10-23T00:37:32;19.48;;;7.88;;
53890;SDS011;41337;51.400;-2.342;2022-10-23T00:42:33;29.70;;;6.97;;
53890;SDS011;41337;51.400;-2.342;2022-10-23T00:47:34;23.73;;;7.15;;
53890;SDS011;41337;51.400;-2.342;2022-10-23T00:52:36;29.75;;;7.60;;
53890;SDS011;41337;51.400;-2.342;2022-10-23T00:57:49;23.65;;;7.13;;
53890;SDS011;41337;51.400;-2.342;2022-10-23T01:02:53;29.10;;;8.52;;
53890;SDS011;41337;51.400;-2.342;2022-10-23T01:07:57;21.23;;;7.82;;
53890;SDS011;41337;51.400;-2.342;2022-10-23T01:13:13;21.20;;;6.80;;
53890;SDS011;41337;51.400;-2.342;2022-10-23T01:18:20;23.55;;;6.97;;
53890;SDS011;41337;51.400;-2.342;2022-10-23T01:29:02;23.50;;;6.45;;
53890;SDS011;41337;51.400;-2.342;2022-10-23T01:34:29;19.85;;;5.95;;
53890;SDS011;41337;51.400;-2.342;2022-10-23T01:39:45;21.70;;;6.38;;
53890;SDS011;41337;51.400;-2.342;2022-10-23T01:44:50;19.08;;;5.97;;
53890;SDS011;41337;51.400;-2.342;2022-10-23T01:50:06;24.55;;;5.93;;
53890;SDS011;41337;51.400;-2.342;2022-10-23T01:55:14;18.83;;;6.10;;
53890;SDS011;41337;51.400;-2.342;2022-10-23T02:00:16;14.20;;;5.30;;
53890;SDS011;41337;51.400;-2.342;2022-10-23T02:05:24;20.40;;;5.90;;
53890;SDS011;41337;51.400;-2.342;2022-10-23T02:21:50;14.95;;;5.05;;
53890;SDS011;41337;51.400;-2.342;2022-10-23T02:27:02;19.33;;;5.05;;
53890;SDS011;41337;51.400;-2.342;2022-10-23T02:32:20;15.40;;;4.80;;
53890;SDS011;41337;51.400;-2.342;2022-10-23T02:37:33;18.88;;;4.90;;
53890;SDS011;41337;51.400;-2.342;2022-10-23T02:53:35;18.42;;;4.97;;
53890;SDS011;41337;51.400;-2.342;2022-10-23T02:58:47;19.92;;;5.45;;
53890;SDS011;41337;51.400;-2.342;2022-10-23T03:03:59;21.70;;;5.25;;
53890;SDS011;41337;51.400;-2.342;2022-10-23T03:09:07;15.82;;;5.07;;
53890;SDS011;41337;51.400;-2.342;2022-10-23T03:14:08;16.92;;;5.18;;
53890;SDS011;41337;51.400;-2.342;2022-10-23T03:19:11;15.25;;;5.13;;
53890;SDS011;41337;51.400;-2.342;2022-10-23T03:24:18;16.55;;;4.65;;
53890;SDS011;41337;51.400;-2.342;2022-10-23T03:29:19;15.77;;;4.07;;
53890;SDS011;41337;51.400;-2.342;2022-10-23T03:34:20;14.65;;;4.28;;
53890;SDS011;41337;51.400;-2.342;2022-10-23T03:39:21;11.68;;;4.43;;
53890;SDS011;41337;51.400;-2.342;2022-10-23T03:44:22;15.88;;;4.38;;
53890;SDS011;41337;51.400;-2.342;2022-10-23T03:49:22;13.32;;;3.70;;
53890;SDS011;41337;51.400;-2.342;2022-10-23T03:54:24;15.13;;;4.15;;
53890;SDS011;41337;51.400;-2.342;2022-10-23T03:59:32;10.40;;;3.25;;
53890;SDS011;41337;51.400;-2.342;2022-10-23T04:04:33;16.38;;;4.35;;
53890;SDS011;41337;51.400;-2.342;2022-10-23T04:09:34;134.40;;;11.02;;
53890;SDS011;41337;51.400;-2.342;2022-10-23T04:14:35;18.80;;;6.00;;
53890;SDS011;41337;51.400;-2.342;2022-10-23T04:19:36;47.60;;;7.22;;
53890;SDS011;41337;51.400;-2.342;2022-10-23T04:24:43;17.88;;;4.53;;
53890;SDS011;41337;51.400;-2.342;2022-10-23T04:29:45;14.88;;;5.03;;
53890;SDS011;41337;51.400;-2.342;2022-10-23T04:34:46;23.75;;;5.03;;
53890;SDS011;41337;51.400;-2.342;2022-10-23T04:39:47;12.38;;;3.85;;
53890;SDS011;41337;51.400;-2.342;2022-10-23T04:44:48;24.27;;;4.88;;
53890;SDS011;41337;51.400;-2.342;2022-10-23T04:49:49;17.52;;;5.53;;
53890;SDS011;41337;51.400;-2.342;2022-10-23T04:54:50;14.63;;;4.95;;
53890;SDS011;41337;51.400;-2.342;2022-10-23T04:59:54;15.75;;;5.78;;
53890;SDS011;41337;51.400;-2.342;2022-10-23T05:04:55;11.45;;;5.18;;
53890;SDS011;41337;51.400;-2.342;2022-10-23T05:09:56;16.95;;;5.40;;
53890;SDS011;41337;51.400;-2.342;2022-10-23T05:14:56;10.80;;;4.32;;
53890;SDS011;41337;51.400;-2.342;2022-10-23T05:19:58;21.50;;;5.13;;
53890;SDS011;41337;51.400;-2.342;2022-10-23T05:25:03;9.10;;;4.40;;
53890;SDS011;41337;51.400;-2.342;2022-10-23T05:30:17;14.20;;;4.80;;
53890;SDS011;41337;51.400;-2.342;2022-10-23T05:35:19;19.75;;;5.72;;
53890;SDS011;41337;51.400;-2.342;2022-10-23T05:40:22;16.33;;;5.32;;
53890;SDS011;41337;51.400;-2.342;2022-10-23T05:45:24;58.92;;;6.88;;
53890;SDS011;41337;51.400;-2.342;2022-10-23T05:50:28;129.32;;;10.63;;
53890;SDS011;41337;51.400;-2.342;2022-10-23T05:55:28;27.08;;;6.28;;
53890;SDS011;41337;51.400;-2.342;2022-10-23T06:00:29;17.08;;;4.78;;
53890;SDS011;41337;51.400;-2.342;2022-10-23T06:05:30;12.05;;;5.03;;
53890;SDS011;41337;51.400;-2.342;2022-10-23T06:10:31;11.77;;;4.57;;
53890;SDS011;41337;51.400;-2.342;2022-10-23T06:15:32;18.10;;;4.57;;
53890;SDS011;41337;51.400;-2.342;2022-10-23T06:20:39;15.05;;;4.97;;
53890;SDS011;41337;51.400;-2.342;2022-10-23T06:25:49;41.67;;;7.07;;
53890;SDS011;41337;51.400;-2.342;2022-10-23T06:30:54;15.68;;;4.80;;
53890;SDS011;41337;51.400;-2.342;2022-10-23T06:35:55;72.80;;;8.02;;
53890;SDS011;41337;51.400;-2.342;2022-10-23T06:40:56;11.88;;;3.00;;
53890;SDS011;41337;51.400;-2.342;2022-10-23T06:45:59;68.32;;;4.78;;
53890;SDS011;41337;51.400;-2.342;2022-10-23T06:51:07;33.28;;;2.63;;
53890;SDS011;41337;51.400;-2.342;2022-10-23T06:56:12;60.10;;;3.63;;
53890;SDS011;41337;51.400;-2.342;2022-10-23T07:01:13;8.52;;;3.35;;
53890;SDS011;41337;51.400;-2.342;2022-10-23T07:06:15;2.75;;;1.33;;
53890;SDS011;41337;51.400;-2.342;2022-10-23T07:11:16;7.95;;;1.30;;
53890;SDS011;41337;51.400;-2.342;2022-10-23T07:16:18;3.10;;;1.20;;
53890;SDS011;41337;51.400;-2.342;2022-10-23T07:21:45;1.13;;;0.80;;
53890;SDS011;41337;51.400;-2.342;2022-10-23T07:26:47;4.00;;;1.33;;
53890;SDS011;41337;51.400;-2.342;2022-10-23T07:31:54;10.60;;;1.40;;
53890;SDS011;41337;51.400;-2.342;2022-10-23T07:36:55;6.47;;;1.60;;
53890;SDS011;41337;51.400;-2.342;2022-10-23T07:41:56;7.13;;;1.40;;
53890;SDS011;41337;51.400;-2.342;2022-10-23T07:46:56;1.80;;;1.02;;
53890;SDS011;41337;51.400;-2.342;2022-10-23T07:51:57;4.88;;;1.13;;
53890;SDS011;41337;51.400;-2.342;2022-10-23T07:56:58;1.48;;;1.00;;
53890;SDS011;41337;51.400;-2.342;2022-10-23T08:01:59;5.35;;;0.95;;
53890;SDS011;41337;51.400;-2.342;2022-10-23T08:07:00;3.97;;;2.85;;
53890;SDS011;41337;51.400;-2.342;2022-10-23T08:12:01;3.78;;;1.90;;
53890;SDS011;41337;51.400;-2.342;2022-10-23T08:17:02;1.73;;;1.27;;
53890;SDS011;41337;51.400;-2.342;2022-10-23T08:22:03;2.60;;;1.40;;
53890;SDS011;41337;51.400;-2.342;2022-10-23T08:27:04;3.70;;;1.20;;
53890;SDS011;41337;51.400;-2.342;2022-10-23T08:32:11;2.47;;;1.05;;
53890;SDS011;41337;51.400;-2.342;2022-10-23T08:37:12;3.67;;;1.20;;
53890;SDS011;41337;51.400;-2.342;2022-10-23T08:42:23;1.30;;;0.70;;
53890;SDS011;41337;51.400;-2.342;2022-10-23T08:58:39;1.77;;;0.30;;
53890;SDS011;41337;51.400;-2.342;2022-10-23T09:03:55;0.77;;;0.50;;
53890;SDS011;41337;51.400;-2.342;2022-10-23T09:08:58;0.50;;;0.50;;
53890;SDS011;41337;51.400;-2.342;2022-10-23T09:19:35;1.00;;;0.40;;
53890;SDS011;41337;51.400;-2.342;2022-10-23T09:24:36;0.47;;;0.20;;
53890;SDS011;41337;51.400;-2.342;2022-10-23T09:29:37;1.13;;;0.40;;
53890;SDS011;41337;51.400;-2.342;2022-10-23T09:34:55;0.85;;;0.40;;
53890;SDS011;41337;51.400;-2.342;2022-10-23T09:40:00;2.17;;;0.40;;
53890;SDS011;41337;51.400;-2.342;2022-10-23T09:46:03;1.20;;;0.40;;
53890;SDS011;41337;51.400;-2.342;2022-10-23T10:01:51;1.35;;;0.40;;
53890;SDS011;41337;51.400;-2.342;2022-10-23T10:06:57;0.50;;;0.40;;
53890;SDS011;41337;51.400;-2.342;2022-10-23T10:23:41;1.13;;;0.40;;
53890;SDS011;41337;51.400;-2.342;2022-10-23T10:39:14;2.42;;;0.38;;
53890;SDS011;41337;51.400;-2.342;2022-10-23T10:55:32;5.07;;;0.40;;
53890;SDS011;41337;51.400;-2.342;2022-10-23T11:00:40;4.28;;;0.57;;
53890;SDS011;41337;51.400;-2.342;2022-10-23T11:05:49;0.93;;;0.40;;
53890;SDS011;41337;51.400;-2.342;2022-10-23T11:10:54;2.35;;;0.50;;
53890;SDS011;41337;51.400;-2.342;2022-10-23T11:16:12;1.48;;;0.30;;
53890;SDS011;41337;51.400;-2.342;2022-10-23T11:37:56;2.08;;;0.55;;
53890;SDS011;41337;51.400;-2.342;2022-10-23T11:43:12;0.85;;;0.28;;
53890;SDS011;41337;51.400;-2.342;2022-10-23T11:48:35;4.45;;;0.20;;
53890;SDS011;41337;51.400;-2.342;2022-10-23T11:53:40;2.47;;;0.50;;
53890;SDS011;41337;51.400;-2.342;2022-10-23T11:58:48;3.47;;;0.40;;
53890;SDS011;41337;51.400;-2.342;2022-10-23T12:03:55;1.73;;;0.25;;
53890;SDS011;41337;51.400;-2.342;2022-10-23T12:09:03;2.50;;;0.30;;
53890;SDS011;41337;51.400;-2.342;2022-10-23T12:19:53;3.92;;;0.30;;
53890;SDS011;41337;51.400;-2.342;2022-10-23T12:30:40;2.15;;;0.52;;
53890;SDS011;41337;51.400;-2.342;2022-10-23T12:41:15;3.90;;;0.40;;
53890;SDS011;41337;51.400;-2.342;2022-10-23T12:46:34;4.32;;;0.60;;
53890;SDS011;41337;51.400;-2.342;2022-10-23T12:51:39;1.95;;;0.40;;
53890;SDS011;41337;51.400;-2.342;2022-10-23T12:56:54;4.18;;;0.30;;
53890;SDS011;41337;51.400;-2.342;2022-10-23T13:01:55;2.35;;;0.52;;
53890;SDS011;41337;51.400;-2.342;2022-10-23T13:06:56;4.50;;;0.43;;
53890;SDS011;41337;51.400;-2.342;2022-10-23T13:12:05;3.05;;;0.40;;
53890;SDS011;41337;51.400;-2.342;2022-10-23T13:17:09;4.38;;;0.40;;
53890;SDS011;41337;51.400;-2.342;2022-10-23T13:22:19;3.42;;;0.45;;
53890;SDS011;41337;51.400;-2.342;2022-10-23T13:27:24;2.83;;;0.40;;
53890;SDS011;41337;51.400;-2.342;2022-10-23T13:32:34;1.83;;;0.55;;
53890;SDS011;41337;51.400;-2.342;2022-10-23T13:37:35;3.30;;;0.60;;
53890;SDS011;41337;51.400;-2.342;2022-10-23T13:42:36;4.82;;;0.50;;
53890;SDS011;41337;51.400;-2.342;2022-10-23T13:47:36;4.57;;;0.50;;
53890;SDS011;41337;51.400;-2.342;2022-10-23T13:52:37;3.83;;;0.50;;
53890;SDS011;41337;51.400;-2.342;2022-10-23T13:57:38;1.65;;;0.38;;
53890;SDS011;41337;51.400;-2.342;2022-10-23T14:02:40;3.28;;;0.40;;
53890;SDS011;41337;51.400;-2.342;2022-10-23T14:07:44;3.08;;;0.52;;
53890;SDS011;41337;51.400;-2.342;2022-10-23T14:12:45;0.98;;;0.30;;
53890;SDS011;41337;51.400;-2.342;2022-10-23T14:17:46;1.73;;;0.40;;
53890;SDS011;41337;51.400;-2.342;2022-10-23T14:22:47;1.10;;;0.30;;
53890;SDS011;41337;51.400;-2.342;2022-10-23T14:27:48;1.80;;;0.50;;
53890;SDS011;41337;51.400;-2.342;2022-10-23T14:32:49;2.00;;;0.40;;
53890;SDS011;41337;51.400;-2.342;2022-10-23T14:37:51;2.60;;;0.50;;
53890;SDS011;41337;51.400;-2.342;2022-10-23T14:42:55;2.28;;;0.45;;
53890;SDS011;41337;51.400;-2.342;2022-10-23T14:47:56;3.50;;;0.60;;
53890;SDS011;41337;51.400;-2.342;2022-10-23T14:53:00;5.80;;;0.85;;
53890;SDS011;41337;51.400;-2.342;2022-10-23T14:58:01;2.90;;;0.60;;
53890;SDS011;41337;51.400;-2.342;2022-10-23T15:03:27;7.68;;;3.10;;
53890;SDS011;41337;51.400;-2.342;2022-10-23T15:08:28;12.80;;;7.90;;
53890;SDS011;41337;51.400;-2.342;2022-10-23T15:13:29;5.78;;;2.30;;
53890;SDS011;41337;51.400;-2.342;2022-10-23T15:18:55;4.03;;;1.17;;
53890;SDS011;41337;51.400;-2.342;2022-10-23T15:23:56;2.17;;;0.60;;
53890;SDS011;41337;51.400;-2.342;2022-10-23T15:29:02;2.95;;;0.73;;
53890;SDS011;41337;51.400;-2.342;2022-10-23T15:34:04;6.22;;;0.85;;
53890;SDS011;41337;51.400;-2.342;2022-10-23T15:39:06;2.60;;;0.63;;
53890;SDS011;41337;51.400;-2.342;2022-10-23T15:44:15;5.38;;;0.65;;
53890;SDS011;41337;51.400;-2.342;2022-10-23T15:49:17;2.08;;;0.50;;
53890;SDS011;41337;51.400;-2.342;2022-10-23T15:54:22;2.90;;;0.65;;
53890;SDS011;41337;51.400;-2.342;2022-10-23T15:59:24;2.65;;;0.68;;
53890;SDS011;41337;51.400;-2.342;2022-10-23T16:04:25;5.68;;;0.90;;
53890;SDS011;41337;51.400;-2.342;2022-10-23T16:09:28;10.05;;;1.02;;
53890;SDS011;41337;51.400;-2.342;2022-10-23T16:14:29;6.55;;;1.27;;
53890;SDS011;41337;51.400;-2.342;2022-10-23T16:19:36;14.02;;;1.23;;
53890;SDS011;41337;51.400;-2.342;2022-10-23T16:24:37;6.65;;;1.40;;
53890;SDS011;41337;51.400;-2.342;2022-10-23T16:29:38;19.65;;;1.73;;
53890;SDS011;41337;51.400;-2.342;2022-10-23T16:34:38;11.57;;;1.55;;
53890;SDS011;41337;51.400;-2.342;2022-10-23T16:39:39;33.90;;;2.63;;
53890;SDS011;41337;51.400;-2.342;2022-10-23T16:44:40;10.80;;;2.50;;
53890;SDS011;41337;51.400;-2.342;2022-10-23T16:49:50;34.22;;;7.30;;
53890;SDS011;41337;51.400;-2.342;2022-10-23T16:54:54;3.33;;;1.38;;
53890;SDS011;41337;51.400;-2.342;2022-10-23T16:59:55;4.80;;;1.27;;
53890;SDS011;41337;51.400;-2.342;2022-10-23T17:04:56;1.65;;;0.95;;
53890;SDS011;41337;51.400;-2.342;2022-10-23T17:09:57;3.80;;;1.88;;
53890;SDS011;41337;51.400;-2.342;2022-10-23T17:14:57;5.03;;;1.30;;
53890;SDS011;41337;51.400;-2.342;2022-10-23T17:19:58;6.13;;;2.60;;
53890;SDS011;41337;51.400;-2.342;2022-10-23T17:24:59;7.45;;;3.38;;
53890;SDS011;41337;51.400;-2.342;2022-10-23T17:30:00;5.20;;;2.70;;
53890;SDS011;41337;51.400;-2.342;2022-10-23T17:35:03;7.32;;;5.05;;
53890;SDS011;41337;51.400;-2.342;2022-10-23T17:40:07;2.15;;;1.58;;
53890;SDS011;41337;51.400;-2.342;2022-10-23T17:45:08;6.22;;;2.90;;
53890;SDS011;41337;51.400;-2.342;2022-10-23T17:50:09;5.28;;;3.30;;
53890;SDS011;41337;51.400;-2.342;2022-10-23T17:55:12;4.40;;;3.60;;
53890;SDS011;41337;51.400;-2.342;2022-10-23T18:00:13;3.95;;;3.55;;
53890;SDS011;41337;51.400;-2.342;2022-10-23T18:05:21;6.57;;;3.63;;
53890;SDS011;41337;51.400;-2.342;2022-10-23T18:10:21;8.45;;;4.53;;
53890;SDS011;41337;51.400;-2.342;2022-10-23T18:15:22;5.60;;;4.28;;
53890;SDS011;41337;51.400;-2.342;2022-10-23T18:20:23;4.72;;;4.25;;
53890;SDS011;41337;51.400;-2.342;2022-10-23T18:25:24;6.03;;;5.05;;
53890;SDS011;41337;51.400;-2.342;2022-10-23T18:30:25;5.57;;;3.95;;
53890;SDS011;41337;51.400;-2.342;2022-10-23T18:35:26;7.07;;;5.60;;
53890;SDS011;41337;51.400;-2.342;2022-10-23T18:40:36;13.25;;;6.18;;
53890;SDS011;41337;51.400;-2.342;2022-10-23T18:45:40;9.05;;;6.13;;
53890;SDS011;41337;51.400;-2.342;2022-10-23T18:50:41;10.82;;;7.05;;
53890;SDS011;41337;51.400;-2.342;2022-10-23T18:55:46;9.10;;;5.80;;
53890;SDS011;41337;51.400;-2.342;2022-10-23T19:00:50;8.90;;;5.75;;
53890;SDS011;41337;51.400;-2.342;2022-10-23T19:05:51;9.15;;;4.43;;
53890;SDS011;41337;51.400;-2.342;2022-10-23T19:10:52;6.05;;;3.45;;
53890;SDS011;41337;51.400;-2.342;2022-10-23T19:15:56;10.80;;;4.00;;
53890;SDS011;41337;51.400;-2.342;2022-10-23T19:20:58;8.63;;;4.72;;
53890;SDS011;41337;51.400;-2.342;2022-10-23T19:26:05;5.95;;;4.50;;
53890;SDS011;41337;51.400;-2.342;2022-10-23T19:31:09;8.82;;;5.45;;
53890;SDS011;41337;51.400;-2.342;2022-10-23T19:36:14;10.85;;;5.20;;
53890;SDS011;41337;51.400;-2.342;2022-10-23T19:41:15;9.70;;;5.55;;
53890;SDS011;41337;51.400;-2.342;2022-10-23T19:46:17;8.70;;;6.05;;
53890;SDS011;41337;51.400;-2.342;2022-10-23T19:51:18;8.18;;;5.75;;
53890;SDS011;41337;51.400;-2.342;2022-10-23T19:56:29;8.38;;;4.13;;
53890;SDS011;41337;51.400;-2.342;2022-10-23T20:01:34;9.50;;;3.92;;
53890;SDS011;41337;51.400;-2.342;2022-10-23T20:06:35;9.30;;;3.90;;
53890;SDS011;41337;51.400;-2.342;2022-10-23T20:11:37;10.38;;;4.90;;
53890;SDS011;41337;51.400;-2.342;2022-10-23T20:16:39;5.38;;;3.95;;
53890;SDS011;41337;51.400;-2.342;2022-10-23T20:21:44;6.00;;;2.63;;
53890;SDS011;41337;51.400;-2.342;2022-10-23T20:26:48;6.63;;;3.13;;
53890;SDS011;41337;51.400;-2.342;2022-10-23T20:31:53;8.95;;;2.70;;
53890;SDS011;41337;51.400;-2.342;2022-10-23T20:36:54;6.70;;;2.25;;
53890;SDS011;41337;51.400;-2.342;2022-10-23T20:41:55;7.25;;;2.05;;
53890;SDS011;41337;51.400;-2.342;2022-10-23T20:46:56;6.88;;;2.22;;
53890;SDS011;41337;51.400;-2.342;2022-10-23T20:51:57;5.45;;;2.75;;
53890;SDS011;41337;51.400;-2.342;2022-10-23T20:56:57;9.43;;;3.50;;
53890;SDS011;41337;51.400;-2.342;2022-10-23T21:01:58;6.88;;;3.55;;
53890;SDS011;41337;51.400;-2.342;2022-10-23T21:06:59;9.98;;;4.65;;
53890;SDS011;41337;51.400;-2.342;2022-10-23T21:12:00;13.30;;;4.63;;
53890;SDS011;41337;51.400;-2.342;2022-10-23T21:17:01;12.27;;;4.20;;
53890;SDS011;41337;51.400;-2.342;2022-10-23T21:22:09;10.18;;;4.53;;
53890;SDS011;41337;51.400;-2.342;2022-10-23T21:27:09;20.05;;;6.15;;
53890;SDS011;41337;51.400;-2.342;2022-10-23T21:32:10;24.20;;;5.90;;
53890;SDS011;41337;51.400;-2.342;2022-10-23T21:37:11;15.98;;;2.92;;
53890;SDS011;41337;51.400;-2.342;2022-10-23T21:42:12;22.42;;;2.78;;
53890;SDS011;41337;51.400;-2.342;2022-10-23T21:47:13;34.55;;;2.70;;
53890;SDS011;41337;51.400;-2.342;2022-10-23T21:52:14;13.63;;;2.53;;
53890;SDS011;41337;51.400;-2.342;2022-10-23T21:57:15;20.92;;;3.30;;
53890;SDS011;41337;51.400;-2.342;2022-10-23T22:02:19;9.85;;;2.38;;
53890;SDS011;41337;51.400;-2.342;2022-10-23T22:07:20;14.32;;;1.63;;
53890;SDS011;41337;51.400;-2.342;2022-10-23T22:12:21;9.98;;;2.20;;
53890;SDS011;41337;51.400;-2.342;2022-10-23T22:17:22;10.07;;;2.13;;
53890;SDS011;41337;51.400;-2.342;2022-10-23T22:22:23;11.98;;;2.03;;
53890;SDS011;41337;51.400;-2.342;2022-10-23T22:27:24;16.55;;;2.13;;
53890;SDS011;41337;51.400;-2.342;2022-10-23T22:32:25;13.63;;;2.83;;
53890;SDS011;41337;51.400;-2.342;2022-10-23T22:37:25;11.43;;;1.95;;
53890;SDS011;41337;51.400;-2.342;2022-10-23T22:42:26;12.30;;;2.15;;
53890;SDS011;41337;51.400;-2.342;2022-10-23T22:47:27;10.05;;;2.83;;
53890;SDS011;41337;51.400;-2.342;2022-10-23T22:52:32;11.00;;;2.30;;
53890;SDS011;41337;51.400;-2.342;2022-10-23T22:57:33;12.40;;;2.17;;
53890;SDS011;41337;51.400;-2.342;2022-10-23T23:02:34;10.38;;;1.77;;
53890;SDS011;41337;51.400;-2.342;2022-10-23T23:07:35;15.52;;;1.80;;
53890;SDS011;41337;51.400;-2.342;2022-10-23T23:12:35;7.95;;;1.58;;
53890;SDS011;41337;51.400;-2.342;2022-10-23T23:17:37;17.15;;;2.65;;
53890;SDS011;41337;51.400;-2.342;2022-10-23T23:22:37;13.23;;;2.15;;
53890;SDS011;41337;51.400;-2.342;2022-10-23T23:27:38;13.45;;;2.33;;
53890;SDS011;41337;51.400;-2.342;2022-10-23T23:32:39;13.40;;;2.50;;
53890;SDS011;41337;51.400;-2.342;2022-10-23T23:37:40;10.38;;;2.90;;
53890;SDS011;41337;51.400;-2.342;2022-10-23T23:42:41;13.15;;;3.47;;
53890;SDS011;41337;51.400;-2.342;2022-10-23T23:47:42;8.38;;;3.25;;
53890;SDS011;41337;51.400;-2.342;2022-10-23T23:52:42;12.02;;;3.20;;
53890;SDS011;41337;51.400;-2.342;2022-10-23T23:57:49;12.07;;;3.53;;
